Time;durP1;ratioP1;P1;durP2;ratioP2;P2;SDS_P1;SDS_P2;PMS_P1;PMS_P2;Temp;Humidity;BMP_temperature;BMP_pressure;BME280_temperature;BME280_humidity;BME280_pressure;Samples;Min_cycle;Max_cycle;Signal;HPM_P1;HPM_P2
2024/01/03 00:00:34;;;;;;;;;;;11.50;99.90;;;13.39;100.00;97739.78;5055361;28;20139;-81
2024/01/03 00:03:00;;;;;;;3.60;0.60;;;11.50;99.90;;;13.33;100.00;97730.91;5072705;28;19970;-80
2024/01/03 00:05:37;;;;;;;3.95;0.75;;;11.50;99.90;;;13.39;100.00;97739.78;5054518;28;20041;-80
2024/01/03 00:08:15;;;;;;;4.38;0.75;;;11.50;99.90;;;13.31;100.00;97733.13;5057599;28;20528;-81
2024/01/03 00:10:55;;;;;;;4.70;1.05;;;11.50;99.90;;;13.35;100.00;97745.09;5064496;28;20045;-80
2024/01/03 00:13:33;;;;;;;5.55;0.70;;;11.50;99.90;;;13.16;100.00;97736.19;5054203;28;20139;-79
2024/01/03 00:16:03;;;;;;;2.53;0.60;;;11.70;99.90;;;13.30;100.00;97745.19;5058733;28;20033;-80
2024/01/03 00:18:49;;;;;;;5.72;1.00;;;11.70;99.90;;;13.21;100.00;97727.84;5075004;28;20114;-80
2024/01/03 00:21:23;;;;;;;4.88;0.90;;;11.70;99.90;;;13.33;100.00;97736.38;5060764;28;20044;-81
2024/01/03 00:23:52;;;;;;;4.28;0.85;;;11.50;99.90;;;12.97;100.00;97744.50;5053991;28;20553;-80
2024/01/03 00:26:18;;;;;;;3.15;0.90;;;11.50;99.90;;;12.88;100.00;97755.34;5053519;28;20249;-80
2024/01/03 00:28:45;;;;;;;4.55;1.00;;;11.50;99.90;;;13.03;100.00;97755.06;5052565;28;20171;-80
2024/01/03 00:31:36;;;;;;;6.35;0.98;;;11.40;99.90;;;12.93;100.00;97744.28;5053768;28;20029;-80
2024/01/03 00:34:37;;;;;;;5.13;0.90;;;11.40;99.90;;;13.02;100.00;97763.53;5054522;28;20029;-82
2024/01/03 00:37:22;;;;;;;5.40;0.90;;;11.40;99.90;;;12.97;100.00;97739.81;5060355;28;20040;-80
2024/01/03 00:39:48;;;;;;;5.97;1.23;;;11.40;99.90;;;12.98;100.00;97746.91;5058325;28;20052;-81
2024/01/03 00:42:14;;;;;;;3.70;1.00;;;11.50;99.90;;;12.82;100.00;97748.34;5054151;28;20120;-79
2024/01/03 00:44:40;;;;;;;6.03;1.05;;;11.50;99.90;;;12.94;100.00;97737.69;5053649;28;20071;-80
2024/01/03 00:47:06;;;;;;;6.72;1.30;;;11.50;99.90;;;12.80;100.00;97765.88;5055161;28;20036;-79
2024/01/03 00:49:34;;;;;;;5.78;1.35;;;11.50;99.90;;;12.71;100.00;97728.56;5065520;28;20047;-80
2024/01/03 00:52:01;;;;;;;7.50;1.23;;;11.40;99.90;;;12.67;100.00;97717.41;5062236;28;20071;-80
2024/01/03 00:54:29;;;;;;;7.65;1.40;;;11.30;99.90;;;12.70;100.00;97741.41;5056873;28;20041;-80
2024/01/03 00:56:55;;;;;;;5.63;1.00;;;11.20;99.90;;;12.72;100.00;97739.19;5053439;28;20120;-79
2024/01/03 00:59:21;;;;;;;6.78;1.30;;;11.20;99.90;;;12.49;100.00;97732.78;5054790;28;20099;-79
2024/01/03 01:01:47;;;;;;;7.20;1.67;;;11.20;99.90;;;12.69;100.00;97747.22;5066467;28;20024;-79
2024/01/03 01:04:15;;;;;;;8.25;1.20;;;11.30;99.90;;;12.79;100.00;97741.53;5059370;28;20037;-79
2024/01/03 01:06:42;;;;;;;8.45;1.20;;;11.20;99.90;;;12.66;100.00;97737.66;5055047;28;20029;-79
2024/01/03 01:09:08;;;;;;;5.63;0.98;;;11.10;99.90;;;12.47;100.00;97722.16;5054644;28;20388;-79
2024/01/03 01:11:35;;;;;;;6.38;1.20;;;11.20;99.90;;;12.69;100.00;97753.47;5052551;28;20108;-79
2024/01/03 01:14:01;;;;;;;7.10;1.00;;;11.30;99.90;;;12.86;100.00;97755.63;5058058;28;20028;-80
2024/01/03 01:16:26;;;;;;;7.18;1.30;;;11.40;99.90;;;12.80;100.00;97729.47;5053030;28;20437;-82
2024/01/03 01:18:52;;;;;;;5.72;1.20;;;11.30;99.90;;;12.59;100.00;97753.69;5052633;28;20058;-81
2024/01/03 01:21:18;;;;;;;7.57;1.25;;;11.20;99.90;;;12.64;100.00;97754.41;5052090;28;20033;-81
2024/01/03 01:23:44;;;;;;;5.22;1.00;;;11.20;99.90;;;12.56;100.00;97732.41;5056674;28;20033;-80
2024/01/03 01:26:10;;;;;;;6.38;1.17;;;11.20;99.90;;;12.36;100.00;97816.38;5056586;28;20045;-80
2024/01/03 01:28:36;;;;;;;9.63;1.40;;;11.20;99.90;;;12.41;100.00;97783.50;5053347;28;20025;-79
2024/01/03 01:31:02;;;;;;;4.35;1.20;;;11.20;99.90;;;12.26;100.00;97740.03;5056715;28;20652;-78
2024/01/03 01:33:28;;;;;;;8.90;1.50;;;11.10;99.90;;;12.35;100.00;97788.25;5057917;28;20037;-78
2024/01/03 01:35:54;;;;;;;8.90;1.60;;;11.00;99.90;;;12.25;100.00;97757.53;5056150;28;20107;-81
2024/01/03 01:38:20;;;;;;;6.72;1.30;;;10.80;99.90;;;12.07;100.00;97779.94;5068391;28;20040;-79
2024/01/03 01:40:48;;;;;;;6.78;1.30;;;10.70;99.90;;;12.03;100.00;97775.38;5057461;28;20037;-79
2024/01/03 01:43:14;;;;;;;8.70;1.80;;;10.60;99.90;;;12.09;100.00;97774.16;5066901;28;20094;-80
2024/01/03 01:45:40;;;;;;;7.55;1.42;;;10.60;99.90;;;12.14;100.00;97778.75;5051970;28;20053;-81
2024/01/03 01:48:08;;;;;;;6.22;1.30;;;10.60;99.90;;;12.10;100.00;97800.38;5053742;28;20032;-79
2024/01/03 01:50:38;;;;;;;;;;;10.50;99.90;;;11.89;100.00;97776.06;5051408;28;20449;-79
2024/01/03 01:53:07;;;;;;;8.52;1.40;;;10.50;99.90;;;12.00;100.00;97784.13;5052094;28;19963;-79
2024/01/03 01:55:38;;;;;;;7.05;1.33;;;10.40;99.90;;;11.97;100.00;97790.19;5051130;28;20043;-79
2024/01/03 01:58:08;;;;;;;8.52;1.20;;;10.40;99.90;;;12.01;100.00;97767.44;5065342;28;20060;-79
2024/01/03 02:00:36;;;;;;;11.20;1.90;;;10.50;99.90;;;11.99;100.00;97779.78;5056362;28;20485;-81
2024/01/03 02:03:03;;;;;;;7.97;1.55;;;10.50;99.90;;;11.93;100.00;97779.84;5035169;28;20037;-79
2024/01/03 02:05:28;;;;;;;8.33;1.10;;;10.60;99.90;;;12.04;100.00;97785.19;5051440;28;20036;-79
2024/01/03 02:07:54;;;;;;;7.40;1.27;;;10.60;99.90;;;12.05;100.00;97760.28;5057558;28;20079;-80
2024/01/03 02:10:20;;;;;;;6.47;1.30;;;10.60;99.90;;;12.05;100.00;97787.59;5060112;28;20493;-79
2024/01/03 02:12:46;;;;;;;7.53;1.25;;;10.70;99.90;;;12.18;100.00;97761.44;5055709;28;20446;-81
2024/01/03 02:15:11;;;;;;;10.77;2.08;;;10.70;99.90;;;12.16;100.00;97765.59;5055746;28;20024;-80
2024/01/03 02:17:39;;;;;;;7.85;1.52;;;10.80;99.90;;;12.14;100.00;97760.41;5065853;28;20044;-80
2024/01/03 02:20:05;;;;;;;11.70;1.73;;;10.70;99.90;;;11.91;100.00;97754.72;5051231;28;20555;-79
2024/01/03 02:22:31;;;;;;;11.70;1.80;;;10.60;99.90;;;11.98;100.00;97764.50;5066697;28;20045;-80
2024/01/03 02:24:57;;;;;;;10.82;1.60;;;10.70;99.90;;;12.06;100.00;97766.56;5052306;28;20041;-80
2024/01/03 02:27:23;;;;;;;9.45;1.10;;;10.70;99.90;;;12.00;100.00;97745.88;5052722;28;20037;-82
2024/01/03 02:29:48;;;;;;;10.25;1.75;;;10.80;99.90;;;12.14;100.00;97744.03;5059328;28;20127;-84
2024/01/03 02:32:14;;;;;;;3.80;1.08;;;10.90;99.90;;;12.18;100.00;97775.09;5051040;28;20041;-80
2024/01/03 02:34:40;;;;;;;9.02;1.48;;;10.90;99.90;;;12.25;100.00;97758.34;5051239;28;20078;-80
2024/01/03 02:37:10;;;;;;;5.80;1.20;;;10.90;99.90;;;12.25;100.00;97757.53;5051195;28;20553;-80
2024/01/03 02:39:36;;;;;;;11.32;1.33;;;10.90;99.90;;;12.33;100.00;97749.47;5057037;28;20437;-81
2024/01/03 02:42:01;;;;;;;7.57;1.35;;;11.00;99.90;;;12.56;100.00;97765.22;5051184;28;20036;-81
2024/01/03 02:44:27;;;;;;;3.60;0.98;;;11.00;99.90;;;12.48;100.00;97751.13;5054360;28;20045;-80
2024/01/03 02:46:54;;;;;;;8.80;1.58;;;11.10;99.90;;;12.58;100.00;97798.53;5051294;28;20400;-80
2024/01/03 02:49:20;;;;;;;6.43;1.75;;;11.20;99.90;;;12.61;100.00;97763.22;5066826;28;20175;-79
2024/01/03 02:51:46;;;;;;;6.20;1.20;;;11.20;99.90;;;12.45;100.00;97748.97;5068879;28;20041;-80
2024/01/03 02:54:12;;;;;;;9.20;1.48;;;11.20;99.90;;;12.48;100.00;97781.22;5051671;28;20419;-79
2024/01/03 02:56:42;;;;;;;8.25;1.20;;;11.30;99.90;;;12.48;100.00;97762.06;5051422;28;20045;-78
2024/01/03 02:59:07;;;;;;;7.35;1.10;;;11.30;99.90;;;12.51;100.00;97760.63;5061737;28;20044;-79
2024/01/03 03:01:34;;;;;;;6.43;1.30;;;11.30;99.90;;;12.57;100.00;97780.50;5064304;28;20037;-78
2024/01/03 03:03:59;;;;;;;9.48;1.75;;;11.30;99.90;;;12.57;100.00;97758.63;5058283;28;20045;-81
2024/01/03 03:06:25;;;;;;;9.20;1.42;;;11.30;99.90;;;12.48;100.00;97762.06;5065182;28;20044;-83
2024/01/03 03:08:51;;;;;;;7.95;1.40;;;11.20;99.90;;;12.31;100.00;97789.94;5051206;28;20413;-81
2024/01/03 03:11:17;;;;;;;6.22;1.35;;;11.10;99.90;;;12.45;100.00;97767.31;5056582;28;20033;-81
2024/01/03 03:13:43;;;;;;;6.95;1.13;;;11.10;99.90;;;12.33;100.00;97804.16;5051258;28;20048;-80
2024/01/03 03:16:08;;;;;;;10.27;2.42;;;11.10;99.90;;;12.35;100.00;97822.97;5050927;28;20032;-81
2024/01/03 03:18:34;;;;;;;8.68;1.63;;;11.20;99.90;;;12.60;100.00;97791.66;5051097;28;20423;-80
2024/01/03 03:21:00;;;;;;;5.68;1.27;;;11.30;99.90;;;12.49;100.00;97785.56;5051309;28;20056;-80
2024/01/03 03:23:26;;;;;;;6.97;1.23;;;11.20;99.90;;;12.47;100.00;97815.13;5053636;28;20033;-82
2024/01/03 03:25:52;;;;;;;10.60;1.40;;;11.30;99.90;;;12.41;100.00;97861.97;5050271;28;20041;-80
2024/01/03 03:28:18;;;;;;;7.25;1.30;;;11.30;99.90;;;12.49;100.00;97793.78;5053618;28;20036;-80
2024/01/03 03:30:44;;;;;;;8.23;1.17;;;11.30;99.90;;;12.40;100.00;97757.25;5058591;28;20485;-80
2024/01/03 03:33:10;;;;;;;5.88;1.25;;;11.30;99.90;;;12.27;100.00;97756.13;5065582;28;20190;-80
2024/01/03 03:35:35;;;;;;;8.18;1.40;;;11.20;99.90;;;12.48;100.00;97789.41;5054548;28;20028;-81
2024/01/03 03:38:01;;;;;;;8.68;1.95;;;11.20;99.90;;;12.56;100.00;97778.88;5054464;28;20044;-80
2024/01/03 03:40:27;;;;;;;8.57;1.20;;;11.30;99.90;;;12.41;100.00;97810.03;5054372;28;20042;-79
2024/01/03 03:42:52;;;;;;;7.95;1.23;;;11.20;99.90;;;12.47;100.00;97837.00;5053988;28;20071;-79
2024/01/03 03:45:18;;;;;;;5.70;1.70;;;11.30;99.90;;;12.49;98.13;97803.88;5060894;28;20388;-81
2024/01/03 03:47:46;;;;;;;5.07;1.20;;;11.40;99.90;;;12.61;97.59;97803.41;5059301;28;20082;-79
2024/01/03 03:50:12;;;;;;;5.38;1.17;;;11.40;99.90;;;12.57;98.98;97824.25;5054183;28;20064;-78
2024/01/03 03:52:40;;;;;;;4.85;1.10;;;11.30;99.90;;;12.54;98.99;97805.72;5059924;28;20072;-80
2024/01/03 03:55:06;;;;;;;;;;;11.30;99.90;;;12.31;100.00;97816.47;5054821;28;20388;-80
2024/01/03 03:57:32;;;;;;;7.45;1.58;;;11.20;99.90;;;12.43;100.00;97802.34;5065665;28;19935;-80
2024/01/03 03:59:58;;;;;;;5.50;1.30;;;11.20;99.90;;;12.26;100.00;97808.38;5069071;28;20044;-79
2024/01/03 04:02:24;;;;;;;6.97;1.30;;;11.20;99.90;;;12.29;100.00;97797.63;5053943;28;20033;-79
2024/01/03 04:04:50;;;;;;;6.25;1.20;;;11.10;99.90;;;12.20;100.00;97794.78;5053463;28;20036;-81
2024/01/03 04:07:16;;;;;;;7.10;1.27;;;11.10;99.90;;;12.29;100.00;97838.63;5053660;28;20115;-83
2024/01/03 04:09:44;;;;;;;10.23;1.48;;;11.10;99.90;;;12.52;100.00;97820.50;5053742;28;20033;-80
2024/01/03 04:12:10;;;;;;;10.35;1.73;;;11.20;99.90;;;12.47;100.00;97828.81;5053554;28;20050;-79
2024/01/03 04:14:39;;;;;;;10.07;1.60;;;11.10;99.90;;;12.49;100.00;97820.28;5053588;28;20025;-80
2024/01/03 04:17:05;;;;;;;9.13;1.85;;;11.10;99.90;;;12.30;100.00;97831.25;5053372;28;20044;-81
2024/01/03 04:19:31;;;;;;;7.03;1.38;;;11.10;99.90;;;12.19;100.00;97877.06;5060498;28;20392;-81
2024/01/03 04:21:58;;;;;;;8.10;1.55;;;10.90;99.90;;;12.37;100.00;97859.84;5056750;28;20112;-80
2024/01/03 04:24:24;;;;;;;8.75;2.13;;;10.80;99.90;;;12.29;100.00;97846.81;5053436;28;20060;-81
2024/01/03 04:26:53;;;;;;;10.95;1.60;;;10.80;99.90;;;12.04;100.00;97859.75;5056181;28;20447;-80
2024/01/03 04:29:19;;;;;;;8.25;1.35;;;10.80;99.90;;;12.11;100.00;97848.47;5056083;28;20078;-80
2024/01/03 04:31:44;;;;;;;5.47;1.40;;;10.80;99.90;;;11.94;100.00;97857.97;5052084;28;20044;-80
2024/01/03 04:34:10;;;;;;;7.25;1.42;;;10.80;99.90;;;11.70;100.00;97836.16;5054804;28;20033;-80
2024/01/03 04:36:36;;;;;;;6.90;1.40;;;10.70;99.90;;;11.70;100.00;97806.09;5051022;28;20061;-81
2024/01/03 04:39:01;;;;;;;7.03;1.48;;;10.70;99.90;;;11.88;100.00;97831.00;5053341;28;20033;-82
2024/01/03 04:41:27;;;;;;;5.75;1.52;;;10.60;99.90;;;11.74;100.00;97869.97;5051815;28;20036;-79
2024/01/03 04:43:53;;;;;;;6.93;1.58;;;10.50;99.90;;;11.86;100.00;97864.06;5057147;28;20033;-80
2024/01/03 04:46:19;;;;;;;10.40;1.55;;;10.50;99.90;;;11.68;100.00;97864.88;5067295;28;20037;-80
2024/01/03 04:48:44;;;;;;;7.90;1.70;;;10.40;99.90;;;11.28;100.00;97841.28;5057662;28;20045;-79
2024/01/03 04:51:10;;;;;;;7.60;1.70;;;10.20;99.90;;;11.18;100.00;97874.97;5058942;28;20040;-79
2024/01/03 04:53:37;;;;;;;9.48;1.75;;;9.90;99.90;;;10.81;100.00;97879.13;5067799;28;20510;-79
2024/01/03 04:56:04;;;;;;;9.82;2.03;;;9.60;99.90;;;10.61;100.00;97861.03;5057437;28;20451;-78
2024/01/03 04:58:29;;;;;;;7.10;1.65;;;9.40;99.90;;;10.49;100.00;97875.84;5056382;28;20037;-78
2024/01/03 05:00:55;;;;;;;10.77;2.03;;;9.20;99.90;;;10.40;100.00;97888.44;5052864;28;20075;-79
2024/01/03 05:03:21;;;;;;;11.20;2.10;;;9.10;99.90;;;10.34;100.00;97889.53;5051550;28;20082;-78
2024/01/03 05:05:46;;;;;;;8.93;2.10;;;9.00;99.90;;;10.24;100.00;97871.38;5069766;28;20451;-78
2024/01/03 05:08:12;;;;;;;7.85;2.30;;;8.90;99.90;;;10.14;100.00;97864.06;5069248;28;20443;-78
2024/01/03 05:10:38;;;;;;;12.57;2.17;;;8.80;99.90;;;10.05;100.00;97882.91;5066082;28;20051;-79
2024/01/03 05:13:04;;;;;;;10.80;3.28;;;8.80;99.90;;;10.20;100.00;97860.19;5052232;28;20076;-78
2024/01/03 05:15:29;;;;;;;11.93;2.47;;;8.70;99.90;;;10.08;100.00;97870.66;5056183;28;20052;-78
2024/01/03 05:17:55;;;;;;;13.38;2.30;;;8.80;99.90;;;10.07;100.00;97860.81;5052521;28;20041;-78
2024/01/03 05:20:21;;;;;;;9.45;1.92;;;8.80;99.90;;;10.14;100.00;97874.13;5070372;28;20044;-79
2024/01/03 05:22:46;;;;;;;13.52;3.05;;;8.80;99.90;;;10.19;100.00;97888.53;5052243;28;20037;-79
2024/01/03 05:25:12;;;;;;;12.23;2.20;;;8.80;99.90;;;10.08;100.00;97890.50;5052776;28;20041;-79
2024/01/03 05:27:38;;;;;;;9.05;2.08;;;8.80;99.90;;;10.10;100.00;97863.00;5052464;28;20480;-79
2024/01/03 05:30:04;;;;;;;9.43;1.90;;;8.80;99.90;;;10.18;100.00;97869.75;5052142;28;20033;-79
2024/01/03 05:32:30;;;;;;;7.70;1.52;;;8.90;99.90;;;10.11;100.00;97859.19;5067576;28;20033;-79
2024/01/03 05:34:55;;;;;;;7.60;1.73;;;8.90;99.90;;;10.19;100.00;97887.72;5055463;28;20041;-79
2024/01/03 05:37:21;;;;;;;12.43;2.42;;;8.90;99.90;;;10.30;100.00;97870.22;5063695;28;20066;-81
2024/01/03 05:39:47;;;;;;;8.50;1.40;;;8.90;99.90;;;10.32;100.00;97870.75;5073958;28;20424;-80
2024/01/03 05:42:12;;;;;;;9.73;2.30;;;8.90;99.90;;;10.49;100.00;97875.84;5074673;28;20032;-81
2024/01/03 05:44:38;;;;;;;8.68;1.50;;;9.10;99.90;;;10.72;100.00;97878.94;5072802;28;20473;-81
2024/01/03 05:47:04;;;;;;;7.47;1.65;;;9.20;99.90;;;10.86;100.00;97890.00;5090283;28;20457;-81
2024/01/03 05:49:30;;;;;;;5.97;1.45;;;9.30;99.90;;;10.97;100.00;97906.25;5074386;28;20058;-81
2024/01/03 05:51:56;;;;;;;8.48;1.67;;;9.50;99.90;;;11.15;100.00;97896.56;5077598;28;20070;-81
2024/01/03 05:54:22;;;;;;;8.18;1.42;;;9.60;99.90;;;11.26;100.00;97880.88;5073069;28;20066;-81
2024/01/03 05:56:47;;;;;;;7.00;1.25;;;9.80;99.90;;;11.17;100.00;97908.81;5075921;28;20114;-81
2024/01/03 05:59:13;;;;;;;8.93;1.48;;;9.90;99.90;;;11.27;100.00;97920.72;5075274;28;20032;-80
2024/01/03 06:01:39;;;;;;;8.98;1.60;;;9.90;99.90;;;11.34;100.00;97924.75;5069669;28;20470;-79
2024/01/03 06:04:04;;;;;;;7.05;1.40;;;9.90;99.90;;;11.51;100.00;97907.09;5071004;28;20040;-81
2024/01/03 06:06:30;;;;;;;6.13;1.77;;;10.00;99.90;;;11.40;100.00;97913.75;5072662;28;20048;-80
2024/01/03 06:08:56;;;;;;;7.25;1.45;;;9.90;99.90;;;11.43;100.00;97918.66;5074550;28;20040;-80
2024/01/03 06:11:22;;;;;;;10.02;2.03;;;9.80;99.90;;;11.25;100.00;97929.19;5070328;28;20028;-79
2024/01/03 06:13:49;;;;;;;7.95;2.20;;;9.70;99.90;;;11.12;100.00;97933.41;5072372;28;20032;-78
2024/01/03 06:16:15;;;;;;;6.57;1.75;;;9.60;99.90;;;11.07;100.00;97931.53;5071776;28;20182;-78
2024/01/03 06:18:41;;;;;;;7.93;2.10;;;9.50;99.90;;;10.86;100.00;97913.72;5070156;28;20123;-79
2024/01/03 06:21:11;;;;;;;8.05;1.55;;;9.40;99.90;;;10.80;100.00;97926.59;5075489;28;20044;-80
2024/01/03 06:23:38;;;;;;;15.80;2.30;;;9.30;99.90;;;10.85;100.00;97928.44;5048221;28;20044;-79
2024/01/03 06:26:07;;;;;;;11.05;2.58;;;9.30;99.90;;;10.85;100.00;97947.53;5052137;28;20040;-80
2024/01/03 06:28:32;;;;;;;9.57;2.00;;;9.40;99.90;;;10.86;100.00;97922.72;5064300;28;20372;-80
2024/01/03 06:30:59;;;;;;;8.75;2.00;;;9.40;99.90;;;10.88;100.00;97925.97;5052613;28;20039;-78
2024/01/03 06:33:25;;;;;;;10.20;1.98;;;9.30;99.90;;;10.83;100.00;97944.28;5052305;28;20024;-80
2024/01/03 06:35:50;;;;;;;8.85;1.90;;;9.30;99.90;;;10.81;100.00;97949.22;5051804;28;20041;-80
2024/01/03 06:38:16;;;;;;;9.35;2.08;;;9.30;99.90;;;10.89;100.00;97945.91;5050597;28;20045;-79
2024/01/03 06:40:42;;;;;;;11.25;2.08;;;9.20;99.90;;;10.88;100.00;97936.88;5070507;28;20041;-81
2024/01/03 06:43:07;;;;;;;9.73;1.83;;;9.30;99.90;;;10.87;100.00;97935.25;5071353;28;20575;-78
2024/01/03 06:45:33;;;;;;;8.95;1.80;;;9.30;99.90;;;10.94;100.00;97929.47;5071734;28;20040;-77
2024/01/03 06:47:59;;;;;;;6.28;1.63;;;9.40;99.90;;;11.02;100.00;97963.53;5064836;28;20037;-78
2024/01/03 06:50:24;;;;;;;5.03;1.77;;;9.50;99.90;;;10.99;100.00;97953.16;5053701;28;20045;-79
2024/01/03 06:52:50;;;;;;;7.55;2.03;;;9.60;99.90;;;10.99;100.00;97951.25;5055687;28;20433;-77
2024/01/03 06:55:16;;;;;;;7.95;1.83;;;9.50;99.90;;;10.96;100.00;97935.47;5051197;28;20036;-78
2024/01/03 06:57:42;;;;;;;9.77;1.80;;;9.40;99.90;;;10.78;100.00;97926.88;5057468;28;20036;-78
2024/01/03 07:00:08;;;;;;;6.88;1.58;;;9.40;99.90;;;10.83;100.00;97917.00;5053616;28;20072;-79
2024/01/03 07:02:34;;;;;;;6.43;1.70;;;9.40;99.90;;;10.93;100.00;97933.31;5051961;28;20491;-79
2024/01/03 07:04:59;;;;;;;6.65;1.48;;;9.50;99.90;;;11.05;100.00;97932.94;5053160;28;20118;-80
2024/01/03 07:07:25;;;;;;;6.82;1.63;;;9.60;99.90;;;11.13;100.00;97929.59;5054010;28;20037;-81
2024/01/03 07:09:51;;;;;;;6.85;1.70;;;9.70;99.90;;;11.22;100.00;97955.16;5058688;28;20063;-78
2024/01/03 07:12:17;;;;;;;6.57;1.30;;;9.80;99.90;;;11.25;100.00;97942.84;5053707;28;20045;-80
2024/01/03 07:14:42;;;;;;;6.28;1.60;;;9.90;99.90;;;11.36;100.00;97959.94;5053694;28;20033;-79
2024/01/03 07:17:08;;;;;;;7.03;1.10;;;9.90;99.90;;;11.41;100.00;97980.94;5055734;28;20063;-77
2024/01/03 07:19:34;;;;;;;7.88;1.30;;;10.10;99.90;;;11.56;100.00;97999.88;5061017;28;20138;-78
2024/01/03 07:21:59;;;;;;;8.73;1.55;;;10.20;99.90;;;11.71;100.00;97959.88;5062383;28;20498;-82
2024/01/03 07:24:25;;;;;;;6.32;1.40;;;10.20;99.90;;;11.71;100.00;97970.78;5068719;28;20052;-79
2024/01/03 07:26:51;;;;;;;7.53;1.40;;;10.30;99.90;;;11.64;100.00;97968.41;5083039;28;20082;-79
2024/01/03 07:29:16;;;;;;;7.18;1.23;;;10.30;99.90;;;11.58;100.00;97992.22;5057699;28;20465;-76
2024/01/03 07:31:43;;;;;;;6.15;1.30;;;10.30;99.90;;;11.70;100.00;97966.44;5058750;28;20045;-78
2024/01/03 07:34:09;;;;;;;7.28;1.40;;;10.30;99.90;;;11.82;100.00;97990.63;5060508;28;20043;-76
2024/01/03 07:36:35;;;;;;;6.25;1.35;;;10.30;99.90;;;11.78;100.00;97982.19;5080305;28;20041;-76
2024/01/03 07:39:02;;;;;;;6.82;1.33;;;10.30;99.90;;;11.68;100.00;97985.03;5060522;28;20048;-77
2024/01/03 07:41:28;;;;;;;5.75;1.08;;;10.30;99.90;;;11.73;100.00;97993.16;5065725;28;20037;-79
2024/01/03 07:43:54;;;;;;;4.97;1.27;;;10.40;99.90;;;11.61;100.00;97983.44;5068973;28;20510;-78
2024/01/03 07:46:20;;;;;;;6.63;1.50;;;10.40;99.90;;;11.79;100.00;98002.94;5062988;28;20044;-78
2024/01/03 07:48:45;;;;;;;7.18;1.20;;;10.50;99.90;;;11.92;100.00;97993.22;5068995;28;20079;-79
2024/01/03 07:51:12;;;;;;;8.93;1.27;;;10.40;99.90;;;11.83;100.00;97984.84;5080313;28;20044;-79
2024/01/03 07:53:37;;;;;;;4.80;1.35;;;10.50;99.90;;;11.81;100.00;97981.59;5062209;28;20033;-77
2024/01/03 07:56:07;;;;;;;7.28;1.35;;;10.50;99.90;;;11.94;100.00;97985.56;5053965;28;20032;-75
2024/01/03 07:58:33;;;;;;;8.02;1.40;;;10.40;99.90;;;11.70;100.00;97996.47;5054346;28;20044;-77
2024/01/03 08:00:59;;;;;;;9.30;1.42;;;10.40;99.90;;;11.89;100.00;98000.06;5053022;28;20045;-77
2024/01/03 08:03:24;;;;;;;5.40;1.38;;;10.40;99.90;;;11.80;100.00;97996.34;5068883;28;20033;-77
2024/01/03 08:05:52;;;;;;;11.82;2.25;;;10.50;99.90;;;11.70;100.00;97991.00;5069247;28;20404;-77
2024/01/03 08:08:18;;;;;;;7.43;1.20;;;10.40;99.90;;;11.93;100.00;97987.47;5060920;28;20060;-78
2024/01/03 08:10:43;;;;;;;8.27;1.40;;;10.40;99.90;;;12.01;100.00;98004.38;5061031;28;20063;-78
2024/01/03 08:13:11;;;;;;;6.75;1.20;;;10.40;99.90;;;11.70;100.00;98013.66;5053895;28;20051;-77
2024/01/03 08:15:36;;;;;;;8.90;1.00;;;10.40;99.90;;;11.74;100.00;97990.13;5052639;28;20044;-79
2024/01/03 08:18:03;;;;;;;10.52;1.85;;;10.40;99.90;;;11.83;100.00;97989.50;5057498;28;20047;-79
2024/01/03 08:20:29;;;;;;;7.28;1.40;;;10.40;99.90;;;12.09;100.00;98011.91;5053523;28;20505;-78
2024/01/03 08:22:55;;;;;;;10.05;1.67;;;10.50;99.90;;;11.93;100.00;98001.16;5068836;28;20087;-77
2024/01/03 08:25:22;;;;;;;5.30;1.15;;;10.50;99.90;;;11.85;100.00;98012.69;5053571;28;20041;-78
2024/01/03 08:27:48;;;;;;;8.45;1.55;;;10.50;99.90;;;11.95;100.00;98003.56;5067747;28;20108;-78
2024/01/03 08:30:13;;;;;;;6.43;1.38;;;10.60;99.90;;;12.17;100.00;98003.06;5053195;28;20138;-79
2024/01/03 08:32:40;;;;;;;5.80;1.23;;;10.60;99.90;;;12.04;100.00;97992.84;5054226;28;20033;-80
2024/01/03 08:35:07;;;;;;;8.27;1.50;;;10.60;99.90;;;12.20;100.00;98016.16;5053647;28;20048;-79
2024/01/03 08:37:33;;;;;;;6.97;1.07;;;10.60;99.90;;;12.03;100.00;98010.34;5053747;28;20045;-77
2024/01/03 08:40:00;;;;;;;4.85;1.10;;;10.60;99.90;;;12.02;100.00;98023.19;5068843;28;20037;-77
2024/01/03 08:42:26;;;;;;;3.75;1.05;;;10.60;99.90;;;12.06;100.00;98015.22;5053907;28;20024;-77
2024/01/03 08:44:52;;;;;;;6.88;1.02;;;10.60;99.90;;;11.86;100.00;97984.25;5053326;28;20037;-77
2024/01/03 08:47:18;;;;;;;6.03;1.20;;;10.70;99.90;;;12.12;100.00;98013.25;5052736;28;20106;-76
2024/01/03 08:49:45;;;;;;;5.47;0.90;;;10.60;99.90;;;12.13;100.00;98003.94;5061119;28;20539;-78
2024/01/03 08:52:11;;;;;;;5.45;1.08;;;10.70;99.90;;;12.21;100.00;98009.59;5053101;28;20087;-78
2024/01/03 08:54:37;;;;;;;5.25;1.13;;;10.60;99.90;;;12.07;100.00;98014.13;5075434;28;20033;-77
2024/01/03 08:57:03;;;;;;;7.32;1.30;;;10.60;99.90;;;12.03;100.00;98013.88;5053133;28;20431;-78
2024/01/03 08:59:31;;;;;;;8.07;1.17;;;10.60;99.90;;;11.89;100.00;98030.13;5059590;28;20044;-76
2024/01/03 09:01:56;;;;;;;3.90;0.80;;;10.60;99.90;;;11.99;100.00;98017.47;5052744;28;20029;-76
2024/01/03 09:04:22;;;;;;;4.18;0.90;;;10.50;99.90;;;12.17;100.00;98014.00;5052975;28;20041;-78
2024/01/03 09:06:52;;;;;;;6.30;1.10;;;10.50;99.90;;;12.01;100.00;98007.09;5052901;28;20408;-78
2024/01/03 09:09:18;;;;;;;3.70;0.85;;;10.50;99.90;;;12.02;100.00;98042.31;5054608;28;20497;-78
2024/01/03 09:11:43;;;;;;;4.05;0.95;;;10.50;99.90;;;11.88;100.00;98009.38;5053006;28;20032;-77
2024/01/03 09:14:09;;;;;;;3.22;0.75;;;10.60;99.90;;;12.09;100.00;98000.97;5051679;28;20089;-80
2024/01/03 09:16:36;;;;;;;3.67;0.75;;;10.60;99.90;;;12.26;100.00;98025.09;5067998;28;20032;-79
2024/01/03 09:19:02;;;;;;;3.13;1.05;;;10.60;99.90;;;12.32;100.00;98025.84;5058665;28;20044;-79
2024/01/03 09:21:30;;;;;;;3.17;0.88;;;10.60;99.90;;;12.18;100.00;98004.69;5058194;28;20086;-80
2024/01/03 09:23:57;;;;;;;2.78;0.98;;;10.50;99.90;;;12.05;100.00;98011.66;5050794;28;20051;-78
2024/01/03 09:26:24;;;;;;;6.93;1.30;;;10.50;99.90;;;11.92;100.00;97991.28;5052364;28;20146;-80
2024/01/03 09:28:51;;;;;;;4.15;0.88;;;10.50;99.90;;;12.12;100.00;98037.84;5068164;28;20055;-79
2024/01/03 09:31:17;;;;;;;2.88;0.70;;;10.60;99.90;;;12.33;100.00;97994.69;5052500;28;20481;-81
2024/01/03 09:33:43;;;;;;;1.70;0.70;;;10.50;99.90;;;12.02;100.00;98006.00;5059752;28;20048;-77
2024/01/03 09:36:20;;;;;;;3.90;0.80;;;10.60;99.90;;;12.32;100.00;98010.25;5055350;28;20040;-78
2024/01/03 09:38:47;;;;;;;3.40;1.02;;;10.70;99.90;;;12.16;100.00;98044.38;5054010;28;20124;-80
2024/01/03 09:41:14;;;;;;;3.80;0.80;;;10.70;99.90;;;12.41;100.00;98010.41;5056452;28;20093;-80
2024/01/03 09:43:45;;;;;;;4.37;1.43;;;10.80;99.90;;;12.26;100.00;98013.38;5064814;28;20033;-79
2024/01/03 09:46:11;;;;;;;2.97;0.63;;;10.80;99.90;;;12.09;100.00;98011.91;5054440;28;20036;-78
2024/01/03 09:48:42;;;;;;;3.55;0.70;;;10.70;99.90;;;12.23;100.00;98017.47;5058905;28;20090;-78
2024/01/03 09:51:08;;;;;;;2.50;0.75;;;10.70;99.90;;;12.10;100.00;98021.72;5035218;28;20155;-78
2024/01/03 09:53:35;;;;;;;1.75;0.52;;;10.70;99.90;;;12.19;100.00;98024.66;5050184;28;20037;-78
2024/01/03 09:56:01;;;;;;;2.83;0.90;;;10.70;99.90;;;12.17;100.00;98019.47;5049523;28;20140;-79
2024/01/03 09:58:27;;;;;;;3.50;0.90;;;10.70;99.90;;;11.99;100.00;98014.75;5050163;28;20075;-78
2024/01/03 10:00:53;;;;;;;1.95;0.60;;;10.70;99.90;;;12.14;100.00;98022.78;5065858;28;20120;-78
2024/01/03 10:03:19;;;;;;;4.15;1.00;;;10.70;99.90;;;12.13;100.00;98032.06;5055177;28;20497;-78
2024/01/03 10:05:46;;;;;;;2.22;0.50;;;10.60;99.90;;;12.01;100.00;98053.53;5050136;28;20051;-78
2024/01/03 10:08:17;;;;;;;4.28;0.70;;;10.50;99.90;;;11.74;100.00;98030.28;5051672;28;20029;-79
2024/01/03 10:10:45;;;;;;;3.53;0.68;;;10.50;99.90;;;11.96;100.00;98037.19;5055853;28;20037;-79
2024/01/03 10:13:27;;;;;;;3.47;0.65;;;10.40;99.90;;;11.70;100.00;98056.56;5054917;28;20147;-80